createdAt,value
2019-01-10T00:02:28.252Z,97.80
2019-01-10T00:05:02.034Z,97.80
2019-01-10T00:07:35.765Z,97.80
2019-01-10T00:10:13.915Z,97.60
2019-01-10T00:12:47.454Z,97.10
2019-01-10T00:15:21.043Z,96.80
2019-01-10T00:17:54.676Z,96.70
2019-01-10T00:20:28.330Z,96.50
2019-01-10T00:23:02.023Z,96.30
2019-01-10T00:25:35.621Z,96.10
2019-01-10T00:28:09.249Z,96.70
2019-01-10T00:30:42.899Z,96.10
2019-01-10T00:33:16.688Z,95.70
2019-01-10T00:35:50.281Z,95.60
2019-01-10T00:38:23.907Z,96.00
2019-01-10T00:40:57.507Z,96.00
2019-01-10T00:43:31.128Z,96.10
2019-01-10T00:46:04.958Z,95.80
2019-01-10T00:48:38.577Z,95.80
2019-01-10T00:51:12.855Z,95.70
2019-01-10T00:53:46.485Z,95.70
2019-01-10T00:56:20.160Z,95.90
2019-01-10T00:58:53.785Z,94.80
2019-01-10T01:01:27.639Z,94.70
2019-01-10T01:04:01.332Z,94.80
2019-01-10T01:06:34.938Z,94.30
2019-01-10T01:09:09.007Z,94.60
2019-01-10T01:11:42.732Z,94.30
2019-01-10T01:14:16.419Z,94.20
2019-01-10T01:16:50.014Z,94.40
2019-01-10T01:19:23.648Z,94.40
2019-01-10T01:21:57.222Z,94.40
2019-01-10T01:24:30.908Z,94.30
2019-01-10T01:27:04.831Z,94.20
2019-01-10T01:29:38.455Z,94.30
2019-01-10T01:32:12.103Z,94.20
2019-01-10T01:34:45.735Z,94.30
2019-01-10T01:37:19.327Z,94.60
2019-01-10T01:39:53.416Z,94.40
2019-01-10T01:42:27.005Z,94.30
2019-01-10T01:45:00.635Z,94.40
2019-01-10T01:47:34.324Z,94.70
2019-01-10T01:50:11.039Z,94.40
2019-01-10T01:52:44.687Z,94.70
2019-01-10T01:55:18.445Z,94.70
2019-01-10T01:57:52.174Z,94.40
2019-01-10T02:00:26.092Z,94.40
2019-01-10T02:02:59.722Z,94.80
2019-01-10T02:05:33.349Z,95.00
2019-01-10T02:08:07.039Z,94.70
2019-01-10T02:10:40.628Z,94.90
2019-01-10T02:13:16.853Z,95.10
2019-01-10T02:15:49.564Z,94.70
2019-01-10T02:18:23.202Z,93.90
2019-01-10T02:20:57.750Z,94.10
2019-01-10T02:23:31.416Z,93.60
2019-01-10T02:26:05.579Z,93.80
2019-01-10T02:28:39.170Z,93.80
2019-01-10T02:31:12.969Z,93.80
2019-01-10T02:33:46.550Z,94.20
2019-01-10T02:36:20.239Z,93.80
2019-01-10T02:38:53.829Z,94.00
2019-01-10T02:41:27.535Z,93.80
2019-01-10T02:44:01.133Z,94.00
2019-01-10T02:46:34.759Z,94.10
2019-01-10T02:49:08.474Z,94.30
2019-01-10T02:51:42.104Z,94.10
2019-01-10T02:54:15.851Z,94.20
2019-01-10T02:56:49.634Z,94.20
2019-01-10T02:59:23.490Z,93.80
2019-01-10T03:01:57.135Z,93.30
2019-01-10T03:04:30.760Z,93.50
2019-01-10T03:07:04.881Z,93.60
2019-01-10T03:09:38.467Z,93.80
2019-01-10T03:12:12.152Z,94.20
2019-01-10T03:14:45.805Z,94.10
2019-01-10T03:17:19.493Z,94.10
2019-01-10T03:19:53.085Z,94.20
2019-01-10T03:22:26.788Z,94.20
2019-01-10T03:25:00.376Z,94.00
2019-01-10T03:27:34.070Z,94.20
2019-01-10T03:30:11.119Z,94.20
2019-01-10T03:32:44.849Z,94.60
2019-01-10T03:35:18.554Z,94.40
2019-01-10T03:37:52.190Z,94.50
2019-01-10T03:40:25.772Z,94.50
2019-01-10T03:42:59.388Z,94.30
2019-01-10T03:45:33.055Z,94.50
2019-01-10T03:48:06.745Z,94.70
2019-01-10T03:50:40.360Z,94.60
2019-01-10T03:53:13.968Z,94.80
2019-01-10T03:55:47.626Z,94.70
2019-01-10T03:58:21.243Z,94.80
2019-01-10T04:00:54.832Z,94.60
2019-01-10T04:03:28.531Z,94.30
2019-01-10T04:06:02.106Z,94.50
2019-01-10T04:08:35.760Z,94.60
2019-01-10T04:11:09.338Z,94.60
2019-01-10T04:13:43.054Z,94.90
2019-01-10T04:16:16.804Z,94.90
2019-01-10T04:18:50.434Z,94.70
2019-01-10T04:21:24.238Z,94.80
2019-01-10T04:23:57.864Z,95.00
2019-01-10T04:26:31.522Z,94.90
2019-01-10T04:29:05.219Z,94.90
2019-01-10T04:31:38.840Z,95.10
2019-01-10T04:34:12.452Z,94.80
2019-01-10T04:36:46.061Z,94.80
2019-01-10T04:39:19.806Z,94.60
2019-01-10T04:41:53.758Z,94.40
2019-01-10T04:44:27.466Z,94.50
2019-01-10T04:47:01.053Z,94.60
2019-01-10T04:49:34.677Z,94.60
2019-01-10T04:52:09.345Z,94.60
2019-01-10T04:54:43.666Z,94.70
2019-01-10T04:57:17.246Z,94.50
2019-01-10T04:59:50.865Z,94.50
2019-01-10T05:02:24.444Z,94.40
2019-01-10T05:04:58.154Z,94.40
2019-01-10T05:07:31.730Z,94.60
2019-01-10T05:10:08.558Z,94.50
2019-01-10T05:12:42.199Z,94.10
2019-01-10T05:15:16.810Z,94.50
2019-01-10T05:17:50.393Z,93.90
2019-01-10T05:20:24.021Z,94.20
2019-01-10T05:22:57.668Z,94.40
2019-01-10T05:25:31.372Z,94.20
2019-01-10T05:28:05.099Z,94.20
2019-01-10T05:30:38.728Z,94.10
2019-01-10T05:33:12.295Z,94.10
2019-01-10T05:35:46.004Z,94.20
2019-01-10T05:38:19.587Z,94.30
2019-01-10T05:40:53.321Z,94.70
2019-01-10T05:43:26.909Z,95.10
2019-01-10T05:46:00.603Z,95.10
2019-01-10T05:48:34.191Z,95.60
2019-01-10T05:51:07.895Z,95.90
2019-01-10T05:53:41.511Z,96.10
2019-01-10T05:56:15.840Z,96.10
2019-01-10T05:58:49.587Z,96.20
2019-01-10T06:01:23.233Z,96.20
2019-01-10T06:03:56.883Z,96.30
2019-01-10T06:06:30.590Z,96.40
2019-01-10T06:09:07.477Z,96.40
2019-01-10T06:11:41.129Z,96.50
2019-01-10T06:14:14.714Z,96.40
2019-01-10T06:16:48.339Z,96.60
2019-01-10T06:19:26.735Z,96.50
2019-01-10T06:21:57.225Z,96.60
2019-01-10T06:24:30.881Z,96.60
2019-01-10T06:27:04.585Z,96.60
2019-01-10T06:29:38.172Z,96.70
2019-01-10T06:32:11.815Z,96.90
2019-01-10T06:34:45.393Z,96.70
2019-01-10T06:37:19.035Z,96.80
2019-01-10T06:39:56.176Z,96.80
2019-01-10T06:42:29.928Z,96.80
2019-01-10T06:45:04.655Z,96.90
2019-01-10T06:47:38.419Z,96.80
2019-01-10T06:50:14.542Z,96.80
2019-01-10T06:52:48.463Z,96.90
2019-01-10T06:55:22.037Z,96.90
2019-01-10T06:57:55.748Z,96.70
2019-01-10T07:00:29.394Z,96.70
2019-01-10T07:03:03.015Z,96.80
2019-01-10T07:05:36.744Z,96.90
2019-01-10T07:08:10.386Z,96.90
2019-01-10T07:10:43.950Z,97.00
2019-01-10T07:13:17.578Z,97.10
2019-01-10T07:15:51.183Z,97.00
2019-01-10T07:18:24.815Z,97.10
2019-01-10T07:20:58.393Z,97.10
2019-01-10T07:23:32.028Z,97.10
2019-01-10T07:26:05.599Z,97.20
2019-01-10T07:28:39.223Z,97.20
2019-01-10T07:31:28.323Z,97.10
2019-01-10T07:34:02.116Z,97.30
2019-01-10T07:36:35.699Z,97.20
2019-01-10T07:39:09.414Z,97.30
2019-01-10T07:41:43.184Z,97.60
2019-01-10T07:44:21.621Z,97.30
2019-01-10T07:46:55.274Z,97.30
2019-01-10T07:49:28.831Z,97.30
2019-01-10T07:52:02.637Z,97.30
2019-01-10T07:54:36.213Z,97.30
2019-01-10T07:57:10.197Z,97.40
2019-01-10T07:59:43.861Z,97.40
2019-01-10T08:02:17.497Z,97.50
2019-01-10T08:04:51.075Z,97.60
2019-01-10T08:07:25.060Z,97.60
2019-01-10T08:09:58.657Z,97.50
2019-01-10T08:12:32.289Z,97.40
2019-01-10T08:15:11.972Z,97.50
2019-01-10T08:17:43.475Z,97.40
2019-01-10T08:20:17.339Z,97.30
2019-01-10T08:22:51.151Z,97.30
2019-01-10T08:25:24.735Z,97.30
2019-01-10T08:27:58.445Z,97.20
2019-01-10T08:30:32.024Z,97.20
2019-01-10T08:33:05.898Z,97.20
2019-01-10T08:35:39.471Z,97.20
2019-01-10T08:38:13.100Z,97.10
2019-01-10T08:40:46.744Z,97.10
2019-01-10T08:43:20.376Z,97.20
2019-01-10T08:45:54.049Z,97.00
2019-01-10T08:48:27.843Z,97.00
2019-01-10T08:51:01.486Z,96.90
2019-01-10T08:53:35.126Z,97.00
2019-01-10T08:56:09.036Z,97.40
2019-01-10T08:58:42.717Z,97.00
2019-01-10T09:01:16.323Z,96.90
2019-01-10T09:03:49.919Z,96.60
2019-01-10T09:06:23.556Z,96.70
2019-01-10T09:08:57.215Z,96.80
2019-01-10T09:11:30.848Z,96.80
2019-01-10T09:14:04.793Z,96.80
2019-01-10T09:16:38.511Z,96.40
2019-01-10T09:19:12.098Z,96.50
2019-01-10T09:21:45.759Z,96.50
2019-01-10T09:24:19.335Z,96.40
2019-01-10T09:26:53.201Z,96.30
2019-01-10T09:29:26.783Z,96.30
2019-01-10T09:32:00.385Z,96.00
2019-01-10T09:34:34.077Z,96.00
2019-01-10T09:37:08.113Z,95.90
2019-01-10T09:39:41.801Z,96.10
2019-01-10T09:42:15.492Z,96.10
2019-01-10T09:44:49.079Z,95.90
2019-01-10T09:47:22.702Z,95.90
2019-01-10T09:49:56.279Z,96.10
2019-01-10T09:52:29.912Z,96.10
2019-01-10T09:55:04.382Z,95.90
2019-01-10T09:57:38.031Z,95.90
2019-01-10T10:00:14.754Z,96.00
2019-01-10T10:02:48.493Z,96.00
2019-01-10T10:05:22.313Z,96.10
2019-01-10T10:07:55.899Z,96.00
2019-01-10T10:10:29.601Z,96.00
2019-01-10T10:13:03.360Z,95.80
2019-01-10T10:15:37.003Z,95.60
2019-01-10T10:18:10.583Z,95.40
2019-01-10T10:20:44.207Z,95.30
2019-01-10T10:23:26.572Z,95.40
2019-01-10T10:25:53.215Z,95.10
2019-01-10T10:28:26.801Z,94.80
2019-01-10T10:31:00.427Z,94.60
2019-01-10T10:33:34.032Z,94.60
2019-01-10T10:36:08.080Z,94.50
2019-01-10T10:38:41.675Z,94.70
2019-01-10T10:41:15.483Z,94.70
2019-01-10T10:43:49.222Z,94.60
2019-01-10T10:46:22.893Z,94.80
2019-01-10T10:48:56.551Z,94.80
2019-01-10T10:51:30.254Z,94.80
2019-01-10T10:54:03.947Z,94.60
2019-01-10T10:56:37.992Z,94.60
2019-01-10T10:59:11.688Z,94.30
2019-01-10T11:01:45.420Z,94.30
2019-01-10T11:04:19.177Z,94.20
2019-01-10T11:06:53.023Z,94.20
2019-01-10T11:09:26.601Z,94.30
2019-01-10T11:12:00.226Z,94.20
2019-01-10T11:14:33.877Z,94.10
2019-01-10T11:17:07.738Z,93.90
2019-01-10T11:19:41.408Z,93.80
2019-01-10T11:22:15.033Z,94.20
2019-01-10T11:24:48.700Z,94.10
2019-01-10T11:27:22.336Z,94.10
2019-01-10T11:29:55.924Z,94.20
2019-01-10T11:32:29.553Z,94.10
2019-01-10T11:35:03.152Z,93.90
2019-01-10T11:37:36.837Z,94.00
2019-01-10T11:40:13.573Z,94.50
2019-01-10T11:42:47.418Z,94.00
2019-01-10T11:45:22.441Z,94.20
2019-01-10T11:47:56.178Z,93.80
2019-01-10T11:50:31.250Z,93.90
2019-01-10T11:53:05.004Z,93.80
2019-01-10T11:55:38.598Z,93.40
2019-01-10T11:58:12.352Z,93.60
2019-01-10T12:00:46.084Z,93.80
2019-01-10T12:03:19.780Z,94.00
2019-01-10T12:05:53.439Z,94.10
2019-01-10T12:08:27.241Z,94.20
2019-01-10T12:11:00.891Z,94.40
2019-01-10T12:13:34.696Z,94.30
2019-01-10T12:16:08.298Z,94.60
2019-01-10T12:18:41.922Z,94.70
2019-01-10T12:21:15.597Z,94.80
2019-01-10T12:23:49.220Z,94.70
2019-01-10T12:26:22.860Z,94.40
2019-01-10T12:28:56.554Z,94.50
2019-01-10T12:31:30.293Z,94.60
2019-01-10T12:34:03.954Z,94.40
2019-01-10T12:36:37.580Z,94.40
2019-01-10T12:39:11.220Z,94.50
2019-01-10T12:41:44.894Z,94.30
2019-01-10T12:44:18.748Z,94.40
2019-01-10T12:46:52.476Z,94.50
2019-01-10T12:49:26.102Z,94.50
2019-01-10T12:51:59.764Z,94.80
2019-01-10T12:54:33.421Z,94.40
2019-01-10T12:57:07.060Z,94.80
2019-01-10T12:59:40.738Z,94.70
2019-01-10T13:02:14.427Z,94.80
2019-01-10T13:04:48.436Z,94.70
2019-01-10T13:07:22.136Z,94.80
2019-01-10T13:09:55.792Z,94.80
2019-01-10T13:12:29.471Z,94.90
2019-01-10T13:15:03.278Z,94.90
2019-01-10T13:17:36.871Z,94.90
2019-01-10T13:20:12.407Z,94.80
2019-01-10T13:22:45.997Z,94.90
2019-01-10T13:25:20.764Z,94.80
2019-01-10T13:27:54.478Z,94.80
2019-01-10T13:30:28.198Z,94.70
2019-01-10T13:33:01.841Z,94.70
2019-01-10T13:35:35.539Z,94.80
2019-01-10T13:38:09.140Z,94.80
2019-01-10T13:40:42.949Z,94.90
2019-01-10T13:43:16.882Z,95.00
2019-01-10T13:45:50.591Z,95.20
2019-01-10T13:48:24.187Z,95.20
2019-01-10T13:50:58.111Z,95.30
2019-01-10T13:53:31.742Z,95.20
2019-01-10T13:56:05.620Z,95.30
2019-01-10T13:58:39.211Z,95.30
2019-01-10T14:01:12.813Z,95.10
2019-01-10T14:03:46.410Z,95.30
2019-01-10T14:06:20.106Z,95.40
2019-01-10T14:08:53.836Z,95.40
2019-01-10T14:11:27.544Z,95.30
2019-01-10T14:14:01.208Z,95.40
2019-01-10T14:16:35.004Z,95.30
2019-01-10T14:19:08.600Z,95.30
2019-01-10T14:21:46.599Z,95.50
2019-01-10T14:24:17.755Z,95.30
2019-01-10T14:26:51.378Z,95.50
2019-01-10T14:29:25.200Z,95.70
2019-01-10T14:31:58.996Z,95.80
2019-01-10T14:34:32.815Z,95.90
2019-01-10T14:37:06.602Z,96.00
2019-01-10T14:39:40.283Z,96.00
2019-01-10T14:42:13.981Z,96.20
2019-01-10T14:44:47.570Z,96.30
2019-01-10T14:47:21.213Z,96.50
2019-01-10T14:49:54.871Z,96.70
2019-01-10T14:52:28.632Z,96.40
2019-01-10T14:55:02.292Z,96.30
2019-01-10T14:57:36.006Z,96.40
2019-01-10T15:00:13.006Z,96.40
2019-01-10T15:02:46.852Z,96.50
2019-01-10T15:05:21.026Z,96.70
2019-01-10T15:07:54.868Z,96.40
2019-01-10T15:10:28.466Z,96.50
2019-01-10T15:13:02.335Z,96.50
2019-01-10T15:15:36.076Z,96.60
2019-01-10T15:18:09.720Z,96.60
2019-01-10T15:20:43.454Z,96.60
2019-01-10T15:23:17.222Z,96.60
2019-01-10T15:25:50.829Z,96.60
2019-01-10T15:28:24.524Z,96.60
2019-01-10T15:30:58.110Z,97.00
2019-01-10T15:33:31.734Z,96.80
2019-01-10T15:36:05.782Z,96.70
2019-01-10T15:38:39.419Z,96.50
2019-01-10T15:41:13.175Z,96.50
2019-01-10T15:43:46.768Z,96.30
2019-01-10T15:46:20.480Z,96.50
2019-01-10T15:48:54.150Z,96.60
2019-01-10T15:51:27.743Z,96.70
2019-01-10T15:54:01.466Z,96.50
2019-01-10T15:56:35.124Z,96.60
2019-01-10T15:59:08.898Z,96.70
2019-01-10T16:01:42.558Z,96.80
2019-01-10T16:04:16.348Z,96.70
2019-01-10T16:06:50.005Z,96.80
2019-01-10T16:09:23.645Z,96.80
2019-01-10T16:11:57.222Z,96.80
2019-01-10T16:14:30.980Z,96.80
2019-01-10T16:17:04.913Z,96.80
2019-01-10T16:19:38.561Z,96.70
2019-01-10T16:22:12.361Z,96.80
2019-01-10T16:24:46.000Z,96.70
2019-01-10T16:27:19.636Z,96.60
2019-01-10T16:29:53.601Z,96.70
2019-01-10T16:32:27.364Z,96.70
2019-01-10T16:35:01.363Z,96.70
2019-01-10T16:37:35.141Z,96.60
2019-01-10T16:40:11.409Z,96.60
2019-01-10T16:42:45.130Z,96.70
2019-01-10T16:45:21.820Z,96.60
2019-01-10T16:47:55.606Z,96.60
2019-01-10T16:50:29.349Z,96.50
2019-01-10T16:53:02.957Z,96.50
2019-01-10T16:55:36.596Z,96.40
2019-01-10T16:58:10.329Z,96.50
2019-01-10T17:00:43.990Z,96.60
2019-01-10T17:03:17.569Z,96.60
2019-01-10T17:05:51.179Z,96.80
2019-01-10T17:08:24.827Z,96.70
2019-01-10T17:10:58.411Z,96.80
2019-01-10T17:13:32.069Z,96.70
2019-01-10T17:16:05.909Z,96.60
2019-01-10T17:18:39.543Z,96.60
2019-01-10T17:21:13.224Z,96.50
2019-01-10T17:23:46.919Z,96.60
2019-01-10T17:26:20.544Z,96.60
2019-01-10T17:28:54.163Z,96.20
2019-01-10T17:31:27.770Z,96.20
2019-01-10T17:34:01.415Z,96.20
2019-01-10T17:36:35.125Z,96.20
2019-01-10T17:39:09.419Z,96.30
2019-01-10T17:41:43.173Z,96.40
2019-01-10T17:44:16.873Z,96.40
2019-01-10T17:46:50.583Z,96.30
2019-01-10T17:49:24.201Z,96.30
2019-01-10T17:51:57.942Z,96.40
2019-01-10T17:54:31.624Z,96.40
2019-01-10T17:57:05.223Z,96.50
2019-01-10T17:59:38.928Z,96.60
2019-01-10T18:02:12.535Z,96.60
2019-01-10T18:04:46.199Z,96.60
2019-01-10T18:07:19.789Z,96.60
2019-01-10T18:09:53.434Z,96.80
2019-01-10T18:12:27.055Z,96.80
2019-01-10T18:15:00.806Z,96.80
2019-01-10T18:17:34.411Z,96.90
2019-01-10T18:20:13.629Z,97.00
2019-01-10T18:22:47.353Z,97.00
2019-01-10T18:25:21.161Z,97.40
2019-01-10T18:27:54.878Z,97.10
2019-01-10T18:30:28.591Z,97.20
2019-01-10T18:33:02.333Z,97.30
2019-01-10T18:35:39.629Z,97.50
2019-01-10T18:38:13.241Z,97.50
2019-01-10T18:40:46.836Z,97.50
2019-01-10T18:43:20.519Z,97.50
2019-01-10T18:45:54.203Z,97.60
2019-01-10T18:48:27.801Z,97.60
2019-01-10T18:51:01.439Z,97.60
2019-01-10T18:53:35.024Z,97.60
2019-01-10T18:56:08.714Z,97.60
2019-01-10T18:58:42.485Z,97.70
2019-01-10T19:01:16.117Z,97.80
2019-01-10T19:03:49.695Z,97.70
2019-01-10T19:06:23.427Z,97.80
2019-01-10T19:08:57.046Z,97.70
2019-01-10T19:11:30.678Z,97.70
2019-01-10T19:14:04.943Z,97.70
2019-01-10T19:16:38.585Z,97.70
2019-01-10T19:19:12.187Z,97.60
2019-01-10T19:21:46.293Z,97.90
2019-01-10T19:24:19.891Z,97.60
2019-01-10T19:26:53.807Z,97.60
2019-01-10T19:29:27.404Z,97.60
2019-01-10T19:32:01.036Z,97.80
2019-01-10T19:34:35.100Z,97.60
2019-01-10T19:37:08.720Z,97.60
2019-01-10T19:39:42.321Z,97.70
2019-01-10T19:42:16.038Z,97.90
2019-01-10T19:44:49.639Z,97.60
2019-01-10T19:47:23.358Z,97.60
2019-01-10T19:49:58.631Z,97.60
2019-01-10T19:52:32.307Z,97.50
2019-01-10T19:55:08.164Z,97.40
2019-01-10T19:57:41.858Z,97.20
2019-01-10T20:00:24.231Z,97.30
2019-01-10T20:02:58.008Z,97.20
2019-01-10T20:05:31.592Z,97.10
2019-01-10T20:08:05.481Z,97.10
2019-01-10T20:10:39.087Z,97.10
2019-01-10T20:13:12.877Z,97.00
2019-01-10T20:15:46.654Z,97.00
2019-01-10T20:18:20.346Z,97.00
2019-01-10T20:20:53.967Z,97.00
2019-01-10T20:23:27.774Z,97.00
2019-01-10T20:26:01.434Z,97.10
2019-01-10T20:28:35.026Z,97.20
2019-01-10T20:31:09.001Z,97.10
2019-01-10T20:33:42.675Z,97.00
2019-01-10T20:36:16.446Z,97.00
2019-01-10T20:38:50.044Z,97.00
2019-01-10T20:41:23.777Z,96.80
2019-01-10T20:43:57.478Z,96.70
2019-01-10T20:46:31.253Z,96.70
2019-01-10T20:49:04.864Z,96.80
2019-01-10T20:51:38.597Z,96.80
2019-01-10T20:54:12.238Z,96.90
2019-01-10T20:56:45.986Z,97.00
2019-01-10T20:59:19.617Z,97.00
2019-01-10T21:01:53.330Z,97.00
2019-01-10T21:04:27.754Z,97.00
2019-01-10T21:07:01.542Z,97.10
2019-01-10T21:09:35.154Z,97.10
2019-01-10T21:12:08.938Z,97.00
2019-01-10T21:14:42.518Z,97.00
2019-01-10T21:17:18.881Z,97.00
2019-01-10T21:19:52.534Z,97.10
2019-01-10T21:22:26.259Z,97.10
2019-01-10T21:24:59.923Z,97.40
2019-01-10T21:27:33.623Z,97.10
2019-01-10T21:30:12.953Z,97.10
2019-01-10T21:32:47.961Z,97.10
2019-01-10T21:35:21.822Z,97.20
2019-01-10T21:37:55.562Z,97.20
2019-01-10T21:40:30.785Z,97.30
2019-01-10T21:43:04.561Z,97.30
2019-01-10T21:45:38.154Z,97.40
2019-01-10T21:48:11.963Z,97.30
2019-01-10T21:50:45.628Z,97.20
2019-01-10T21:53:19.446Z,96.90
2019-01-10T21:55:53.148Z,96.80
2019-01-10T21:58:26.751Z,96.80
2019-01-10T22:01:00.920Z,96.70
2019-01-10T22:03:34.671Z,96.80
2019-01-10T22:06:08.375Z,96.90
2019-01-10T22:08:42.112Z,96.90
2019-01-10T22:11:15.744Z,96.90
2019-01-10T22:13:49.329Z,96.90
2019-01-10T22:16:22.964Z,96.80
2019-01-10T22:18:56.711Z,96.70
2019-01-10T22:21:30.373Z,96.40
2019-01-10T22:24:04.136Z,96.30
2019-01-10T22:26:37.743Z,96.40
2019-01-10T22:29:11.410Z,96.30
2019-01-10T22:31:45.048Z,96.30
2019-01-10T22:34:18.724Z,96.30
2019-01-10T22:36:52.350Z,96.40
2019-01-10T22:39:25.953Z,96.20
2019-01-10T22:41:59.586Z,96.20
2019-01-10T22:44:33.182Z,96.30
2019-01-10T22:47:06.821Z,96.30
2019-01-10T22:49:40.396Z,96.30
2019-01-10T22:52:14.044Z,96.60
2019-01-10T22:54:47.693Z,96.60
2019-01-10T22:57:21.328Z,96.70
2019-01-10T22:59:54.928Z,96.70
2019-01-10T23:02:29.008Z,96.70
2019-01-10T23:05:02.603Z,96.80
2019-01-10T23:07:37.216Z,96.80
2019-01-10T23:10:11.174Z,96.80
2019-01-10T23:12:44.934Z,96.70
2019-01-10T23:15:23.410Z,96.70
2019-01-10T23:17:57.186Z,96.70
2019-01-10T23:20:30.787Z,96.60
2019-01-10T23:23:10.183Z,96.70
2019-01-10T23:25:45.403Z,96.70
2019-01-10T23:28:19.030Z,96.80
2019-01-10T23:30:55.410Z,96.70
2019-01-10T23:33:29.382Z,96.90
2019-01-10T23:36:03.912Z,96.90
2019-01-10T23:38:37.611Z,96.90
2019-01-10T23:41:11.216Z,97.10
2019-01-10T23:43:44.886Z,97.00
2019-01-10T23:46:18.536Z,96.90
2019-01-10T23:48:52.172Z,96.90
2019-01-10T23:51:25.850Z,97.00
2019-01-10T23:53:59.458Z,97.00
2019-01-10T23:56:34.179Z,96.90
2019-01-10T23:59:07.804Z,96.90
